Time;durP1;ratioP1;P1;durP2;ratioP2;P2;SDS_P1;SDS_P2;PMS_P1;PMS_P2;Temp;Humidity;BMP_temperature;BMP_pressure;BME280_temperature;BME280_humidity;BME280_pressure;Samples;Min_cycle;Max_cycle;Signal;HPM_P1;HPM_P2
2021/05/08 00:02:42;;;;;;;7.67;4.83;;;;;;;7.91;49.62;98255.88;8279155;28;20213;-64
2021/05/08 00:06:45;;;;;;;5.40;4.50;;;;;;;7.73;50.00;98246.94;8279258;28;20237;-64
2021/05/08 00:10:47;;;;;;;8.60;5.03;;;;;;;7.64;49.62;98246.31;8280330;28;20202;-64
2021/05/08 00:14:49;;;;;;;6.10;4.83;;;;;;;7.66;50.04;98238.53;8279765;28;20213;-65
2021/05/08 00:18:51;;;;;;;5.87;5.03;;;;;;;7.55;49.97;98248.31;8279624;28;20224;-64
2021/05/08 00:22:53;;;;;;;7.43;4.77;;;;;;;7.67;49.27;98255.69;8284954;28;20202;-64
2021/05/08 00:26:55;;;;;;;6.17;5.33;;;;;;;7.62;50.11;98252.41;8285562;28;20226;-64
2021/05/08 00:30:57;;;;;;;8.07;4.83;;;;;;;7.60;50.55;98264.50;8286531;28;20214;-64
2021/05/08 00:35:00;;;;;;;5.23;4.73;;;;;;;7.54;50.37;98255.19;8286049;28;20488;-64
2021/05/08 00:39:02;;;;;;;4.70;4.20;;;;;;;7.66;49.66;98256.59;8285551;28;20369;-64
2021/05/08 00:43:04;;;;;;;5.10;4.60;;;;;;;7.52;49.90;98258.69;8285256;28;20213;-64
2021/05/08 00:47:06;;;;;;;5.30;4.63;;;;;;;7.35;50.39;98256.56;8284994;28;20222;-64
2021/05/08 00:51:09;;;;;;;6.10;4.73;;;;;;;7.46;50.52;98259.69;8285371;28;20321;-64
2021/05/08 00:55:12;;;;;;;5.17;4.60;;;;;;;7.39;50.99;98259.03;8284847;28;20212;-63
2021/05/08 00:59:14;;;;;;;5.50;4.60;;;;;;;7.45;50.85;98260.59;8284813;28;20456;-64
2021/05/08 01:03:16;;;;;;;8.77;5.33;;;;;;;7.43;50.46;98252.91;8285283;28;20221;-64
2021/05/08 01:07:19;;;;;;;5.53;4.53;;;;;;;7.39;50.67;98260.75;8285028;28;20237;-64
2021/05/08 01:11:21;;;;;;;5.13;4.73;;;;;;;7.33;50.39;98260.91;8284730;28;20206;-64
2021/05/08 01:15:23;;;;;;;5.10;4.00;;;;;;;7.29;51.00;98269.59;8284653;28;20229;-64
2021/05/08 01:19:27;;;;;;;8.73;4.73;;;;;;;7.01;51.10;98268.59;8284199;28;20209;-64
2021/05/08 01:23:30;;;;;;;6.33;4.60;;;;;;;6.79;51.89;98265.69;8284304;28;20398;-64
2021/05/08 01:27:32;;;;;;;4.73;4.33;;;;;;;7.01;51.46;98268.59;8284356;28;20397;-64
2021/05/08 01:31:33;;;;;;;5.10;4.60;;;;;;;7.09;51.50;98268.41;8283646;28;20208;-64
2021/05/08 01:35:36;;;;;;;4.80;4.27;;;;;;;7.08;51.21;98269.28;8284241;28;20232;-64
2021/05/08 01:39:39;;;;;;;5.00;4.40;;;;;;;7.10;51.29;98270.09;8283729;28;20202;-64
2021/05/08 01:43:41;;;;;;;4.93;4.40;;;;;;;6.86;51.27;98268.97;8283674;28;20232;-64
2021/05/08 01:47:43;;;;;;;5.03;4.60;;;;;;;6.73;51.69;98270.16;8283806;28;20396;-64
2021/05/08 01:51:45;;;;;;;5.17;4.67;;;;;;;6.39;52.67;98274.34;8284295;28;20212;-64
2021/05/08 01:55:48;;;;;;;4.93;4.43;;;;;;;6.07;53.73;98264.75;8283694;28;20206;-64
2021/05/08 01:59:50;;;;;;;5.40;4.90;;;;;;;6.39;53.20;98265.78;8283520;28;20206;-64
2021/05/08 02:03:52;;;;;;;4.33;4.00;;;;;;;6.35;52.99;98266.75;8282863;28;20216;-64
2021/05/08 02:07:54;;;;;;;5.10;4.03;;;;;;;6.23;53.48;98262.72;8283091;28;20268;-63
2021/05/08 02:11:57;;;;;;;5.80;4.63;;;;;;;5.83;54.33;98254.09;8282771;28;20201;-64
2021/05/08 02:15:59;;;;;;;7.03;4.77;;;;;;;6.04;53.73;98246.84;8282527;28;20209;-65
2021/05/08 02:20:01;;;;;;;4.90;4.50;;;;;;;5.93;54.14;98244.47;8282546;28;20202;-65
2021/05/08 02:24:05;;;;;;;5.67;4.70;;;;;;;6.04;53.88;98245.13;8282255;28;20396;-65
2021/05/08 02:28:08;;;;;;;5.40;4.90;;;;;;;5.60;55.06;98240.88;8281897;28;20299;-65
2021/05/08 02:32:10;;;;;;;5.60;4.83;;;;;;;5.85;54.92;98242.06;8282064;28;20206;-65
2021/05/08 02:36:12;;;;;;;6.53;5.20;;;;;;;5.63;55.67;98241.63;8281663;28;20550;-65
2021/05/08 02:40:16;;;;;;;8.03;5.03;;;;;;;5.75;55.36;98239.69;8281293;28;20202;-65
2021/05/08 02:44:19;;;;;;;7.03;5.20;;;;;;;5.46;56.19;98239.44;8281031;28;20202;-65
2021/05/08 02:48:20;;;;;;;9.80;4.90;;;;;;;5.62;55.53;98232.25;8281549;28;20240;-65
2021/05/08 02:52:23;;;;;;;7.60;5.40;;;;;;;5.55;56.28;98229.84;8281860;28;20273;-65
2021/05/08 02:56:26;;;;;;;7.43;5.23;;;;;;;5.38;56.52;98232.72;8281702;28;20308;-65
2021/05/08 03:00:29;;;;;;;8.00;5.40;;;;;;;5.08;57.52;98227.28;8281518;28;20223;-65
2021/05/08 03:04:31;;;;;;;9.17;5.90;;;;;;;5.47;55.99;98230.00;8281110;28;20226;-66
2021/05/08 03:08:33;;;;;;;9.67;6.27;;;;;;;5.28;57.03;98216.66;8281012;28;20320;-65
2021/05/08 03:12:36;;;;;;;9.03;6.50;;;;;;;5.07;57.31;98223.88;8280846;28;20202;-65
2021/05/08 03:16:39;;;;;;;9.27;6.73;;;;;;;5.06;57.22;98227.34;8281026;28;20345;-65
2021/05/08 03:20:41;;;;;;;9.83;6.70;;;;;;;5.16;56.98;98222.00;8280912;28;20488;-65
2021/05/08 03:24:43;;;;;;;9.50;6.10;;;;;;;5.02;57.39;98222.25;8280747;28;20212;-65
2021/05/08 03:28:45;;;;;;;7.63;6.37;;;;;;;4.84;57.89;98221.72;8280457;28;20237;-65
2021/05/08 03:32:48;;;;;;;10.87;6.23;;;;;;;4.90;57.51;98228.47;8280562;28;20202;-65
2021/05/08 03:36:51;;;;;;;8.20;5.10;;;;;;;5.26;56.66;98226.94;8280451;28;20247;-65
2021/05/08 03:40:52;;;;;;;8.37;6.10;;;;;;;5.14;56.61;98229.75;8280544;28;20540;-65
2021/05/08 03:44:54;;;;;;;9.70;6.00;;;;;;;5.35;56.47;98228.50;8280582;28;20201;-65
2021/05/08 03:48:57;;;;;;;10.43;6.70;;;;;;;5.11;57.19;98228.97;8280596;28;20503;-65
2021/05/08 03:52:59;;;;;;;11.30;6.27;;;;;;;5.45;55.99;98230.03;8280445;28;20209;-65
2021/05/08 03:57:01;;;;;;;15.03;7.30;;;;;;;5.63;55.15;98233.09;8285845;28;20205;-65
2021/05/08 04:01:03;;;;;;;13.70;8.00;;;;;;;5.42;55.49;98237.78;8286869;28;20201;-65
2021/05/08 04:05:07;;;;;;;8.83;6.70;;;;;;;5.15;56.85;98238.31;8286363;28;20287;-65
2021/05/08 04:09:10;;;;;;;9.67;6.67;;;;;;;5.18;56.95;98235.66;8286750;28;20201;-65
2021/05/08 04:13:12;;;;;;;8.73;6.77;;;;;;;5.09;57.31;98241.81;8286500;28;20201;-65
2021/05/08 04:17:13;;;;;;;9.23;6.40;;;;;;;5.15;56.90;98239.13;8286182;28;20213;-65
2021/05/08 04:21:16;;;;;;;7.60;6.60;;;;;;;5.29;57.00;98236.31;8286033;28;20213;-65
2021/05/08 04:25:18;;;;;;;7.93;6.23;;;;;;;5.78;55.50;98239.66;8285952;28;20237;-65
2021/05/08 04:29:22;;;;;;;8.60;6.30;;;;;;;5.47;56.02;98241.09;8285771;28;20202;-65
2021/05/08 04:33:27;;;;;;;6.47;5.50;;;;;;;5.47;56.68;98240.28;8286253;28;20320;-65
2021/05/08 04:37:30;;;;;;;8.67;6.27;;;;;;;4.80;59.28;98238.06;8285617;28;20217;-65
2021/05/08 04:41:32;;;;;;;7.47;6.70;;;;;;;4.73;59.29;98244.16;8286031;28;20531;-65
2021/05/08 04:45:34;;;;;;;7.50;5.67;;;;;;;4.94;58.98;98249.78;8286107;28;20229;-65
2021/05/08 04:49:36;;;;;;;8.60;6.30;;;;;;;4.96;59.11;98246.31;8285067;28;20254;-65
2021/05/08 04:53:38;;;;;;;8.77;7.43;;;;;;;4.79;58.99;98256.88;8285439;28;20213;-65
2021/05/08 04:57:40;;;;;;;7.87;6.57;;;;;;;4.81;59.71;98262.81;8285441;28;20533;-65
2021/05/08 05:01:42;;;;;;;7.63;6.80;;;;;;;4.89;59.08;98265.25;8284761;28;20496;-65
2021/05/08 05:05:44;;;;;;;6.97;6.20;;;;;;;5.16;58.53;98269.09;8284097;28;20245;-65
2021/05/08 05:09:47;;;;;;;9.30;7.00;;;;;;;5.19;58.17;98255.34;8285096;28;20206;-65
2021/05/08 05:13:49;;;;;;;9.07;6.17;;;;;;;5.20;58.50;98257.88;8284615;28;20220;-65
2021/05/08 05:17:50;;;;;;;6.80;6.10;;;;;;;5.09;59.05;98263.19;8283732;28;20380;-65
2021/05/08 05:21:52;;;;;;;6.50;5.80;;;;;;;5.38;58.21;98266.97;8284149;28;20233;-65
2021/05/08 05:25:55;;;;;;;7.37;6.50;;;;;;;5.68;57.19;98264.69;8284419;28;20234;-65
2021/05/08 05:29:57;;;;;;;7.77;6.27;;;;;;;5.94;56.58;98263.31;8284292;28;20375;-65
2021/05/08 05:33:59;;;;;;;8.50;6.77;;;;;;;6.03;56.22;98261.41;8283317;28;20194;-65
2021/05/08 05:38:01;;;;;;;7.87;6.93;;;;;;;5.89;57.42;98258.28;8283198;28;20197;-65
2021/05/08 05:42:09;;;;;;;7.17;6.57;;;;;;;5.88;57.37;98266.84;8282666;28;20198;-65
2021/05/08 05:46:11;;;;;;;7.63;6.83;;;;;;;5.63;58.24;98263.94;8282060;28;20234;-65
2021/05/08 05:50:13;;;;;;;7.57;6.87;;;;;;;5.79;58.56;98257.63;8283338;28;20248;-65
2021/05/08 05:54:15;;;;;;;7.73;7.03;;;;;;;6.18;57.16;98269.69;8282825;28;20246;-65
2021/05/08 05:58:17;;;;;;;7.00;6.33;;;;;;;6.30;56.64;98259.13;8282858;28;20212;-65
2021/05/08 06:02:19;;;;;;;8.53;6.80;;;;;;;6.57;55.81;98261.97;8282929;28;20205;-65
2021/05/08 06:06:21;;;;;;;7.30;6.60;;;;;;;6.86;55.56;98256.09;8282681;28;20241;-65
2021/05/08 06:10:24;;;;;;;6.90;6.30;;;;;;;6.90;55.25;98262.03;8282625;28;20220;-65
2021/05/08 06:14:27;;;;;;;11.57;10.37;;;;;;;6.90;55.78;98257.72;8282644;28;20369;-65
2021/05/08 06:18:30;;;;;;;7.87;7.07;;;;;;;7.38;53.86;98256.47;8282687;28;20206;-65
2021/05/08 06:22:32;;;;;;;6.53;5.93;;;;;;;7.81;52.89;98253.56;8281884;28;20208;-65
2021/05/08 06:26:35;;;;;;;7.30;5.70;;;;;;;8.33;51.68;98252.91;8281872;28;20231;-65
2021/05/08 06:30:38;;;;;;;7.00;6.30;;;;;;;8.55;51.35;98259.13;8279203;28;20305;-65
2021/05/08 06:34:39;;;;;;;6.40;5.80;;;;;;;8.45;50.96;98251.72;8281857;28;20205;-65
2021/05/08 06:38:41;;;;;;;6.97;6.37;;;;;;;8.52;50.54;98250.63;8282297;28;20216;-65
2021/05/08 06:42:43;;;;;;;5.83;5.33;;;;;;;9.29;49.12;98255.84;8281850;28;20212;-65
2021/05/08 06:46:46;;;;;;;6.80;6.20;;;;;;;8.95;48.91;98254.44;8282347;28;20263;-65
2021/05/08 06:50:48;;;;;;;6.03;5.53;;;;;;;8.86;49.98;98249.56;8281582;28;20206;-65
2021/05/08 06:54:51;;;;;;;7.37;5.40;;;;;;;9.46;48.26;98243.22;8281423;28;20201;-65
2021/05/08 06:58:53;;;;;;;5.90;5.20;;;;;;;9.73;47.31;98236.19;8281516;28;20214;-65
2021/05/08 07:02:56;;;;;;;5.77;5.20;;;;;;;10.55;45.62;98241.72;8281691;28;20276;-65
2021/05/08 07:06:58;;;;;;;7.30;5.23;;;;;;;10.65;45.21;98251.72;8280944;28;20363;-65
2021/05/08 07:11:00;;;;;;;6.03;4.73;;;;;;;11.00;45.11;98237.31;8281178;28;20480;-65
2021/05/08 07:15:02;;;;;;;5.13;4.63;;;;;;;11.18;43.99;98240.88;8281000;28;20205;-65
2021/05/08 07:19:05;;;;;;;5.37;4.83;;;;;;;11.52;43.35;98242.88;8280248;28;20345;-65
2021/05/08 07:23:08;;;;;;;5.93;5.27;;;;;;;11.57;43.37;98244.41;8280335;28;20205;-65
2021/05/08 07:27:10;;;;;;;5.20;4.80;;;;;;;12.25;42.51;98242.25;8281078;28;20232;-65
2021/05/08 07:31:12;;;;;;;5.70;5.13;;;;;;;12.43;42.00;98249.19;8279847;28;20201;-65
2021/05/08 07:35:15;;;;;;;5.10;4.70;;;;;;;12.11;41.14;98242.88;8281016;28;20224;-65
2021/05/08 07:39:17;;;;;;;5.17;4.67;;;;;;;12.09;41.80;98239.53;8280841;28;20206;-65
2021/05/08 07:43:19;;;;;;;6.20;5.60;;;;;;;12.77;41.10;98239.72;8279715;28;20269;-65
2021/05/08 07:47:21;;;;;;;4.40;4.00;;;;;;;13.57;40.19;98230.53;8279930;28;20280;-65
2021/05/08 07:51:24;;;;;;;8.77;6.23;;;;;;;13.28;40.27;98227.66;8279912;28;20486;-65
2021/05/08 07:55:27;;;;;;;5.47;2.90;;;;;;;15.80;47.35;98231.00;8279879;28;20265;-70
2021/05/08 07:59:28;;;;;;;3.73;2.90;;;;;;;16.76;39.96;98233.66;8280408;28;20205;-71
2021/05/08 08:03:30;;;;;;;5.70;3.10;;;;;;;17.02;37.12;98232.91;8279902;28;20276;-71
2021/05/08 08:07:33;;;;;;;5.73;3.10;;;;;;;17.34;36.93;98225.50;8282019;28;20247;-71
2021/05/08 08:11:36;;;;;;;4.60;3.03;;;;;;;18.00;36.83;98231.47;8293426;28;20197;-71
2021/05/08 08:15:38;;;;;;;3.60;2.87;;;;;;;17.52;35.42;98229.50;8279496;28;20325;-71
2021/05/08 08:19:41;;;;;;;4.67;3.83;;;;;;;17.79;32.90;98223.28;8279240;28;20209;-71
2021/05/08 08:23:43;;;;;;;5.03;2.40;;;;;;;18.39;33.69;98223.47;8279212;28;20204;-72
2021/05/08 08:27:45;;;;;;;4.27;2.33;;;;;;;18.85;33.50;98228.00;8280200;28;20468;-71
2021/05/08 08:31:47;;;;;;;4.00;2.10;;;;;;;19.26;32.72;98232.78;8280397;28;20212;-71
2021/05/08 08:35:49;;;;;;;4.30;2.27;;;;;;;19.33;31.89;98225.28;8280519;28;20273;-71
2021/05/08 08:39:52;;;;;;;7.50;2.90;;;;;;;18.81;32.78;98221.31;8280414;28;20514;-72
2021/05/08 08:43:54;;;;;;;11.23;3.03;;;;;;;19.43;32.24;98215.75;8285337;28;20290;-71
2021/05/08 08:47:57;;;;;;;7.57;2.57;;;;;;;19.19;32.30;98209.72;8286347;28;20226;-71
2021/05/08 08:51:59;;;;;;;6.97;3.17;;;;;;;18.31;26.78;98200.44;8286246;28;20202;-65
2021/05/08 08:56:03;;;;;;;4.97;3.20;;;;;;;18.59;27.02;98206.31;8286108;28;20276;-65
2021/05/08 09:00:07;;;;;;;3.20;2.90;;;;;;;18.63;27.20;98199.88;8286159;28;20201;-66
2021/05/08 09:04:10;;;;;;;5.97;3.00;;;;;;;19.05;27.12;98200.28;8285636;28;20197;-65
2021/05/08 09:08:12;;;;;;;3.97;2.90;;;;;;;17.52;28.17;98186.78;8286582;28;20245;-65
2021/05/08 09:12:15;;;;;;;3.37;2.63;;;;;;;17.49;28.22;98189.59;8285682;28;20223;-65
2021/05/08 09:16:17;;;;;;;4.50;3.00;;;;;;;17.45;28.65;98188.13;8285817;28;20213;-65
2021/05/08 09:20:19;;;;;;;9.03;3.00;;;;;;;17.54;29.03;98177.84;8285889;28;20267;-65
2021/05/08 09:24:25;;;;;;;5.43;2.30;;;;;;;17.70;25.81;98190.72;8285940;28;20225;-65
2021/05/08 09:28:29;;;;;;;5.40;2.10;;;;;;;17.83;24.87;98176.75;8285881;28;20501;-65
2021/05/08 09:32:36;;;;;;;4.07;2.37;;;;;;;17.55;26.19;98168.22;8285573;28;20197;-65
2021/05/08 09:36:49;;;;;;;3.07;2.43;;;;;;;18.15;25.10;98170.09;8285444;28;20216;-65
2021/05/08 09:40:52;;;;;;;3.07;2.30;;;;;;;17.64;25.37;98166.75;8285655;28;20479;-65
2021/05/08 09:44:58;;;;;;;3.27;2.10;;;;;;;17.85;25.27;98173.13;8285878;28;20273;-65
2021/05/08 09:49:10;;;;;;;3.53;2.13;;;;;;;18.61;26.32;98179.00;8284923;28;20229;-65
2021/05/08 09:53:12;;;;;;;5.77;2.33;;;;;;;18.88;26.36;98165.63;8284415;28;20202;-65
2021/05/08 09:57:19;;;;;;;4.83;2.50;;;;;;;18.52;25.49;98158.69;8284432;28;20208;-65
2021/05/08 10:01:22;;;;;;;4.33;2.20;;;;;;;18.92;24.54;98153.13;8281919;28;20185;-65
2021/05/08 10:05:24;;;;;;;4.50;2.70;;;;;;;19.27;24.31;98155.69;8283901;28;20241;-65
2021/05/08 10:09:26;;;;;;;4.33;2.40;;;;;;;19.37;26.21;98147.94;8283653;28;20498;-65
2021/05/08 10:13:31;;;;;;;3.17;2.37;;;;;;;19.25;25.48;98141.03;8283352;28;20198;-65
2021/05/08 10:17:34;;;;;;;5.67;2.37;;;;;;;19.00;25.30;98148.16;8283058;28;20208;-65
2021/05/08 10:21:37;;;;;;;4.17;2.63;;;;;;;18.63;24.33;98136.94;8280526;28;20198;-65
2021/05/08 10:25:40;;;;;;;12.37;2.53;;;;;;;18.58;25.02;98129.38;8283309;28;20197;-64
2021/05/08 10:29:43;;;;;;;3.30;2.37;;;;;;;18.82;25.35;98137.25;8283677;28;20201;-65
2021/05/08 10:33:46;;;;;;;3.53;2.40;;;;;;;19.32;24.61;98115.94;8283520;28;20420;-65
2021/05/08 10:38:10;;;;;;;5.50;2.40;;;;;;;19.46;25.34;98126.22;8283717;28;20495;-65
2021/05/08 10:42:12;;;;;;;6.57;1.90;;;;;;;19.60;29.93;98117.25;8282456;28;20217;-73
2021/05/08 10:46:15;;;;;;;5.40;2.37;;;;;;;18.39;24.57;98116.84;8283089;28;20399;-72
2021/05/08 10:50:21;;;;;;;4.50;2.50;;;;;;;17.84;26.24;98105.06;8250558;28;20209;-72
2021/05/08 10:54:52;;;;;;;2.93;2.03;;;;;;;18.17;26.18;98104.47;8250194;28;20397;-72
2021/05/08 10:59:04;;;;;;;3.53;2.27;;;;;;;18.30;25.98;98094.75;8253706;28;20261;-73
2021/05/08 11:03:06;;;;;;;3.50;2.20;;;;;;;18.79;26.92;98084.13;8280784;28;20199;-74
2021/05/08 11:07:34;;;;;;;9.33;1.90;;;;;;;19.03;26.77;98084.09;8283277;28;20304;-73
2021/05/08 11:11:47;;;;;;;7.83;2.17;;;;;;;19.14;27.98;98073.59;8282280;28;20210;-73
2021/05/08 11:16:08;;;;;;;6.03;2.13;;;;;;;19.52;26.41;98056.63;8282043;28;20274;-72
2021/05/08 11:20:30;;;;;;;4.57;2.00;;;;;;;19.84;25.52;98075.09;8281847;28;20514;-72
2021/05/08 11:24:38;;;;;;;3.03;1.63;;;;;;;19.43;25.64;98062.59;8278041;28;20204;-73
2021/05/08 11:28:52;;;;;;;4.83;1.77;;;;;;;19.54;26.40;98060.78;8280939;28;20230;-72
2021/05/08 11:33:20;;;;;;;4.00;2.10;;;;;;;18.70;24.53;98062.09;8280390;28;20201;-72
2021/05/08 11:37:22;;;;;;;6.03;2.00;;;;;;;18.76;27.67;98041.44;8280703;28;20194;-72
2021/05/08 11:41:26;;;;;;;3.20;2.40;;;;;;;18.67;25.91;98057.06;8280430;28;20246;-73
2021/05/08 11:45:39;;;;;;;5.87;2.13;;;;;;;18.60;25.30;98033.09;8281037;28;20348;-73
2021/05/08 11:49:42;;;;;;;6.27;1.83;;;;;;;18.43;24.97;98037.00;8281347;28;20252;-72
2021/05/08 11:53:43;;;;;;;4.67;1.80;;;;;;;18.95;26.60;98032.19;8294969;28;20229;-73
2021/05/08 11:57:52;;;;;;;7.50;1.53;;;;;;;18.98;24.70;98033.75;8296362;28;20484;-73
2021/05/08 12:02:10;;;;;;;7.87;1.90;;;;;;;19.12;26.19;98026.47;8297060;28;20825;-73
2021/05/08 12:06:15;;;;;;;4.70;1.90;;;;;;;19.24;24.54;98031.72;8296884;28;20257;-73
2021/05/08 12:10:19;;;;;;;3.03;1.70;;;;;;;19.62;24.42;98020.75;8296394;28;20248;-71
2021/05/08 12:14:22;;;;;;;4.90;1.57;;;;;;;19.96;24.93;98002.28;8296059;28;20231;-73
2021/05/08 12:18:24;;;;;;;2.33;1.23;;;;;;;20.20;24.15;97994.19;8301408;28;20197;-73
2021/05/08 12:22:26;;;;;;;3.47;1.47;;;;;;;19.76;24.93;97985.50;8303391;28;20515;-73
2021/05/08 12:26:29;;;;;;;2.80;1.67;;;;;;;19.97;24.08;97979.47;8302940;28;20257;-73
2021/05/08 12:30:32;;;;;;;6.33;1.53;;;;;;;20.20;24.88;97977.56;8302616;28;20193;-73
2021/05/08 12:34:34;;;;;;;4.50;1.73;;;;;;;19.90;23.74;97985.22;8300055;28;20197;-73
2021/05/08 12:38:36;;;;;;;3.23;1.80;;;;;;;20.07;22.63;97989.09;8302799;28;20205;-72
2021/05/08 12:42:42;;;;;;;6.43;1.70;;;;;;;20.55;24.44;97974.59;8296216;28;20205;-73
2021/05/08 12:47:01;;;;;;;2.77;1.43;;;;;;;20.84;23.74;97955.50;8270767;28;20225;-73
2021/05/08 12:51:03;;;;;;;4.37;1.57;;;;;;;20.02;24.24;97964.97;8269763;28;20194;-74
2021/05/08 12:55:06;;;;;;;3.90;1.30;;;;;;;20.06;24.79;97955.06;8269779;28;20200;-73
2021/05/08 12:59:08;;;;;;;3.93;1.80;;;;;;;19.59;23.51;97960.63;8269685;28;20202;-73
2021/05/08 13:03:21;;;;;;;3.10;1.53;;;;;;;19.48;23.47;97964.09;8282325;28;20194;-73
2021/05/08 13:07:30;;;;;;;2.93;1.67;;;;;;;19.46;25.84;97952.06;8301901;28;20333;-73
2021/05/08 13:11:37;;;;;;;2.83;1.43;;;;;;;19.86;23.85;97952.28;8301797;28;20201;-73
2021/05/08 13:15:40;;;;;;;2.83;1.20;;;;;;;20.01;23.67;97938.81;8299625;28;20307;-73
2021/05/08 13:19:43;;;;;;;2.90;1.57;;;;;;;20.47;23.71;97934.97;8299411;28;20394;-73
2021/05/08 13:23:45;;;;;;;2.47;1.50;;;;;;;19.86;23.77;97947.03;8301205;28;20197;-73
2021/05/08 13:27:48;;;;;;;2.80;1.47;;;;;;;19.87;23.71;97932.91;8300861;28;20229;-73
2021/05/08 13:31:50;;;;;;;1.80;1.37;;;;;;;19.62;24.31;97936.72;8301027;28;20397;-74
2021/05/08 13:35:53;;;;;;;2.80;1.33;;;;;;;19.79;25.21;97926.66;8300732;28;20387;-73
2021/05/08 13:39:55;;;;;;;3.23;1.10;;;;;;;19.60;24.49;97924.66;8300720;28;20197;-72
2021/05/08 13:43:57;;;;;;;4.43;1.50;;;;;;;19.92;24.95;97916.78;8284620;28;20231;-74
2021/05/08 13:47:58;;;;;;;2.37;1.67;;;;;;;19.58;23.29;97909.03;8284311;28;20400;-76
2021/05/08 13:52:01;;;;;;;2.17;1.60;;;;;;;19.48;22.67;97903.69;8283067;28;20198;-74
2021/05/08 13:56:03;;;;;;;3.20;2.10;;;;;;;19.42;24.00;97900.72;8284042;28;20204;-75
2021/05/08 14:00:07;;;;;;;5.33;1.90;;;;;;;19.18;24.23;97904.41;8283969;28;20205;-78
2021/05/08 14:04:08;;;;;;;5.77;1.90;;;;;;;19.32;24.15;97888.38;8284320;28;20344;-79
2021/05/08 14:08:11;;;;;;;3.07;1.80;;;;;;;20.34;23.17;97890.47;8284924;28;20238;-79
2021/05/08 14:12:13;;;;;;;5.73;2.20;;;;;;;19.47;23.09;97875.75;8283555;28;20209;-77
2021/05/08 14:16:15;;;;;;;9.07;2.00;;;;;;;19.38;25.07;97871.28;8283670;28;20220;-77
2021/05/08 14:20:18;;;;;;;4.87;1.90;;;;;;;18.92;24.22;97878.47;8283745;28;20263;-79
2021/05/08 14:24:21;;;;;;;6.80;2.20;;;;;;;19.12;24.25;97865.53;8283828;28;20201;-78
2021/05/08 14:28:23;;;;;;;3.43;2.03;;;;;;;18.45;24.64;97853.31;8283338;28;20304;-80
2021/05/08 14:32:25;;;;;;;8.40;2.20;;;;;;;18.52;25.61;97844.88;8283417;28;20202;-77
2021/05/08 14:36:27;;;;;;;3.97;1.93;;;;;;;18.94;24.83;97831.09;8283277;28;20208;-77
2021/05/08 14:40:31;;;;;;;4.07;1.50;;;;;;;19.37;25.12;97835.47;8281786;28;20321;-76
2021/05/08 14:44:32;;;;;;;3.60;1.70;;;;;;;19.09;25.46;97840.34;8282590;28;20205;-77
2021/05/08 14:48:35;;;;;;;6.33;2.00;;;;;;;19.10;25.27;97833.31;8283076;28;20226;-76
2021/05/08 14:52:37;;;;;;;2.97;1.53;;;;;;;19.19;25.39;97824.72;8283202;28;20519;-75
2021/05/08 14:56:40;;;;;;;6.90;2.10;;;;;;;18.94;25.80;97823.22;8282461;28;20209;-77
2021/05/08 15:00:43;;;;;;;1.90;1.70;;;;;;;18.47;27.14;97818.19;8282421;28;20280;-76
2021/05/08 15:04:45;;;;;;;6.93;2.30;;;;;;;19.00;27.05;97812.25;8282286;28;20236;-78
2021/05/08 15:08:47;;;;;;;6.27;2.30;;;;;;;18.81;26.99;97807.66;8282019;28;20229;-76
2021/05/08 15:12:50;;;;;;;4.07;1.67;;;;;;;18.91;26.99;97813.81;8281639;28;20202;-77
2021/05/08 15:16:52;;;;;;;2.40;1.80;;;;;;;18.55;27.04;97809.72;8281654;28;20272;-78
2021/05/08 15:20:54;;;;;;;3.33;1.80;;;;;;;18.62;28.14;97794.31;8281989;28;20367;-76
2021/05/08 15:24:56;;;;;;;5.07;1.70;;;;;;;18.46;26.52;97795.53;8282443;28;20206;-78
2021/05/08 15:28:59;;;;;;;3.27;2.23;;;;;;;17.79;27.14;97796.34;8282232;28;20230;-64
2021/05/08 15:33:01;;;;;;;6.83;2.20;;;;;;;18.49;26.42;97790.03;8281994;28;20492;-64
2021/05/08 15:37:03;;;;;;;5.03;2.20;;;;;;;18.08;27.84;97782.81;8282306;28;20205;-64
2021/05/08 15:41:05;;;;;;;2.43;1.97;;;;;;;18.20;27.93;97783.63;8282003;28;20260;-64
2021/05/08 15:45:10;;;;;;;3.70;2.20;;;;;;;18.15;27.53;97778.78;8282244;28;20539;-64
2021/05/08 15:49:13;;;;;;;2.63;1.70;;;;;;;18.23;26.82;97770.31;8282215;28;20240;-64
2021/05/08 15:53:16;;;;;;;2.17;1.30;;;;;;;18.25;26.73;97763.97;8287656;28;20273;-64
2021/05/08 15:57:18;;;;;;;2.90;1.60;;;;;;;18.36;27.45;97757.91;8288500;28;20273;-64
2021/05/08 16:01:22;;;;;;;3.30;1.80;;;;;;;18.11;27.63;97762.44;8288288;28;20198;-64
2021/05/08 16:05:24;;;;;;;5.33;1.53;;;;;;;18.53;27.21;97746.06;8288952;28;20416;-64
2021/05/08 16:09:28;;;;;;;2.80;1.88;;;;;;;18.47;27.31;97749.19;8288467;28;20597;-72
2021/05/08 16:13:32;;;;;;;3.13;1.60;;;;;;;18.18;28.32;97760.16;8288108;28;20198;-72
2021/05/08 16:17:40;;;;;;;3.43;2.63;;;;;;;18.21;28.02;97756.50;8280305;28;20212;-72
2021/05/08 16:21:42;;;;;;;3.30;2.20;;;;;;;18.32;27.58;97746.00;8274399;28;20289;-71
2021/05/08 16:25:49;;;;;;;1.70;1.53;;;;;;;18.27;27.93;97748.97;8305686;28;20205;-73
2021/05/08 16:29:51;;;;;;;2.40;1.50;;;;;;;18.38;27.92;97734.19;8287302;28;20582;-72
2021/05/08 16:33:54;;;;;;;2.20;1.73;;;;;;;18.02;28.63;97733.53;8286817;28;20209;-72
2021/05/08 16:37:56;;;;;;;2.77;1.70;;;;;;;17.58;29.25;97736.81;8267211;28;20272;-72
2021/05/08 16:41:58;;;;;;;3.13;1.77;;;;;;;17.59;29.58;97729.78;8269358;28;20202;-72
2021/05/08 16:46:00;;;;;;;2.40;1.43;;;;;;;17.72;29.80;97727.06;8266339;28;20273;-72
2021/05/08 16:50:05;;;;;;;4.93;2.57;;;;;;;17.97;28.96;97726.00;8274216;28;20536;-72
2021/05/08 16:54:07;;;;;;;2.83;2.33;;;;;;;17.91;29.94;97716.00;8254751;28;20206;-71
2021/05/08 16:58:09;;;;;;;2.53;1.97;;;;;;;17.74;29.72;97720.78;8293215;28;20205;-72
2021/05/08 17:02:12;;;;;;;2.27;1.67;;;;;;;17.46;30.42;97719.44;8303590;28;20846;-72
2021/05/08 17:06:15;;;;;;;2.87;1.90;;;;;;;17.42;30.27;97706.69;8304625;28;20232;-72
2021/05/08 17:10:17;;;;;;;3.77;1.77;;;;;;;17.04;30.85;97711.25;8306101;28;20400;-71
2021/05/08 17:14:19;;;;;;;2.90;1.60;;;;;;;17.27;30.76;97706.06;8272876;28;20225;-72
2021/05/08 17:18:21;;;;;;;2.47;2.03;;;;;;;17.33;31.63;97708.22;8279514;28;20205;-72
2021/05/08 17:22:24;;;;;;;4.20;2.13;;;;;;;17.17;31.30;97703.31;8271463;28;20210;-72
2021/05/08 17:26:26;;;;;;;4.23;2.20;;;;;;;17.29;31.26;97697.16;8254214;28;20214;-72
2021/05/08 17:30:28;;;;;;;4.57;3.50;;;;;;;17.17;31.58;97698.06;8254065;28;20249;-63
2021/05/08 17:34:33;;;;;;;4.00;2.80;;;;;;;17.09;31.89;97695.22;8264208;28;20212;-63
2021/05/08 17:38:36;;;;;;;3.37;2.37;;;;;;;17.08;31.72;97694.38;8267655;28;20252;-64
2021/05/08 17:42:38;;;;;;;3.50;2.70;;;;;;;17.14;31.69;97696.53;8253574;28;20383;-65
2021/05/08 17:46:40;;;;;;;3.13;1.77;;;;;;;16.96;31.86;97693.53;8256708;28;20229;-74
2021/05/08 17:50:42;;;;;;;3.07;2.03;;;;;;;16.99;31.77;97695.06;8259394;28;20217;-63
2021/05/08 17:54:45;;;;;;;3.47;1.73;;;;;;;16.90;31.88;97693.13;8253188;28;20214;-63
2021/05/08 17:58:47;;;;;;;3.00;1.90;;;;;;;16.73;32.38;97689.94;8253589;28;20302;-63
2021/05/08 18:02:49;;;;;;;2.90;1.90;;;;;;;16.92;32.38;97681.59;8253578;28;20285;-63
2021/05/08 18:06:53;;;;;;;3.40;1.63;;;;;;;16.72;32.96;97688.28;8252060;28;20274;-63
2021/05/08 18:10:56;;;;;;;6.87;1.60;;;;;;;16.71;32.91;97689.22;8299158;28;20308;-63
2021/05/08 18:14:58;;;;;;;4.03;1.60;;;;;;;16.69;33.17;97685.91;8304137;28;20201;-63
2021/05/08 18:19:00;;;;;;;2.97;1.87;;;;;;;16.66;33.58;97680.06;8285648;28;20278;-64
2021/05/08 18:23:03;;;;;;;1.83;1.53;;;;;;;16.69;33.55;97688.50;8284541;28;20213;-63
2021/05/08 18:27:06;;;;;;;1.93;1.47;;;;;;;16.70;33.59;97686.75;8264778;28;20426;-63
2021/05/08 18:31:08;;;;;;;4.18;3.05;;;;;;;16.87;33.38;97688.97;8304102;28;20563;-64
2021/05/08 18:35:11;;;;;;;2.60;1.80;;;;;;;17.15;32.98;97682.50;8315040;28;20417;-64
2021/05/08 18:39:13;;;;;;;3.40;1.70;;;;;;;16.69;33.90;97672.81;8316460;28;20256;-64
2021/05/08 18:43:17;;;;;;;4.13;2.00;;;;;;;16.58;34.57;97667.53;8316591;28;20272;-64
2021/05/08 18:47:19;;;;;;;4.37;2.50;;;;;;;16.41;35.08;97667.03;8304218;28;20295;-64
2021/05/08 18:51:22;;;;;;;5.60;2.90;;;;;;;16.32;35.24;97664.25;8315733;28;20209;-64
2021/05/08 18:55:24;;;;;;;5.07;2.93;;;;;;;16.31;35.36;97673.03;8301726;28;20198;-64
2021/05/08 18:59:28;;;;;;;18.80;14.97;;;;;;;16.12;35.99;97674.34;8279985;28;20193;-64
2021/05/08 19:03:30;;;;;;;8.97;5.60;;;;;;;16.16;35.94;97681.03;8282579;28;20264;-65
2021/05/08 19:07:32;;;;;;;6.67;4.37;;;;;;;15.89;36.23;97680.38;8282969;28;20257;-64
2021/05/08 19:11:35;;;;;;;8.50;4.23;;;;;;;15.91;36.56;97687.13;8283098;28;20531;-63